Time;durP1;ratioP1;P1;durP2;ratioP2;P2;SDS_P1;SDS_P2;PMS_P1;PMS_P2;Temp;Humidity;BMP_temperature;BMP_pressure;BME280_temperature;BME280_humidity;BME280_pressure;Samples;Min_cycle;Max_cycle;Signal;HPM_P1;HPM_P2
2023/08/13 00:02:20;;;;;;;8.40;3.90;;;;;;;21.00;62.27;100336.83;129670;1267;115039;-74
2023/08/13 00:05:22;;;;;;;5.80;3.60;;;;;;;20.97;62.31;100341.40;129613;1266;115314;-75
2023/08/13 00:08:24;;;;;;;7.20;3.60;;;;;;;20.95;62.63;100342.12;129824;1263;115400;-75
2023/08/13 00:11:26;;;;;;;7.90;4.40;;;;;;;20.93;62.84;100344.36;129829;1264;114790;-77
2023/08/13 00:14:29;;;;;;;6.30;4.30;;;;;;;20.89;62.76;100343.21;129628;1260;114731;-77
2023/08/13 00:17:31;;;;;;;5.50;3.50;;;;;;;20.88;62.98;100341.48;129697;1260;115149;-77
2023/08/13 00:20:33;;;;;;;8.40;4.60;;;;;;;20.86;63.07;100336.80;130020;1260;114754;-76
2023/08/13 00:23:34;;;;;;;10.90;3.90;;;;;;;20.85;62.97;100338.58;129676;1274;128630;-75
2023/08/13 00:26:39;;;;;;;5.80;3.70;;;;;;;20.84;63.19;100337.77;129779;1281;114750;-70
2023/08/13 00:29:41;;;;;;;;;;;;;;;20.83;63.33;100333.84;129777;1260;114910;-70
2023/08/13 00:32:43;;;;;;;6.30;3.00;;;;;;;20.82;63.54;100333.58;129763;1263;114728;-69
2023/08/13 00:35:45;;;;;;;4.20;3.00;;;;;;;20.80;63.57;100335.35;129942;1260;115139;-69
2023/08/13 00:38:47;;;;;;;6.80;3.20;;;;;;;20.79;63.50;100335.29;129721;1260;114743;-75
2023/08/13 00:41:49;;;;;;;13.30;4.00;;;;;;;20.78;63.30;100335.00;129811;1259;115110;-74
2023/08/13 00:44:51;;;;;;;6.70;3.40;;;;;;;20.78;63.60;100342.77;129879;1259;114817;-74
2023/08/13 00:47:56;;;;;;;3.80;3.40;;;;;;;20.79;63.70;100345.95;129580;1260;115183;-76
2023/08/13 00:50:59;;;;;;;4.60;3.40;;;;;;;20.79;63.84;100347.27;129692;1279;114731;-74
2023/08/13 00:54:01;;;;;;;7.00;4.20;;;;;;;20.78;63.85;100347.29;129862;1260;114913;-75
2023/08/13 00:57:04;;;;;;;5.40;3.90;;;;;;;20.77;63.73;100343.57;129835;1276;114807;-67
2023/08/13 01:00:08;;;;;;;4.10;3.50;;;;;;;20.78;63.85;100344.44;129863;1272;115673;-75
2023/08/13 01:03:10;;;;;;;6.70;3.10;;;;;;;20.78;63.76;100344.41;129774;1263;129011;-74
2023/08/13 01:06:33;;;;;;;6.10;4.00;;;;;;;20.78;63.95;100344.60;129711;1276;114822;-74
2023/08/13 01:09:56;;;;;;;8.00;3.40;;;;;;;20.77;63.88;100346.13;129489;1263;115280;-69
2023/08/13 01:13:21;;;;;;;6.10;3.60;;;;;;;20.76;64.14;100351.28;129537;1264;114801;-73
2023/08/13 01:16:23;;;;;;;5.20;3.10;;;;;;;20.75;64.26;100349.38;129751;1265;114745;-72
2023/08/13 01:19:26;;;;;;;4.20;3.50;;;;;;;20.73;64.39;100351.93;129741;1260;114824;-74
2023/08/13 01:22:28;;;;;;;7.60;3.90;;;;;;;20.72;64.58;100354.58;129787;1260;115443;-66
2023/08/13 01:25:30;;;;;;;4.20;3.30;;;;;;;20.71;64.67;100356.63;129410;1264;115254;-70
2023/08/13 01:28:53;;;;;;;3.90;3.00;;;;;;;20.71;64.73;100359.06;129718;1263;115347;-72
2023/08/13 01:31:57;;;;;;;7.00;3.90;;;;;;;20.70;64.97;100359.86;129726;1263;114709;-70
2023/08/13 01:35:00;;;;;;;4.40;3.80;;;;;;;20.69;65.26;100362.33;129597;1270;114844;-73
2023/08/13 01:38:02;;;;;;;5.60;4.10;;;;;;;20.66;65.31;100361.27;129608;1265;115339;-70
2023/08/13 01:41:04;;;;;;;5.20;3.50;;;;;;;20.64;65.41;100357.48;129674;1264;114819;-67
2023/08/13 01:44:06;;;;;;;4.50;3.70;;;;;;;20.61;65.45;100364.46;129725;1263;114748;-70
2023/08/13 01:47:08;;;;;;;9.10;3.50;;;;;;;20.58;65.52;100359.67;129474;1260;114930;-66
2023/08/13 01:50:10;;;;;;;6.00;3.50;;;;;;;20.55;65.82;100361.90;129708;1260;114782;-68
2023/08/13 01:53:12;;;;;;;9.50;4.00;;;;;;;20.51;65.86;100357.54;129477;1259;114801;-73
2023/08/13 01:56:14;;;;;;;4.80;3.50;;;;;;;20.49;65.99;100363.15;129792;1264;114815;-69
2023/08/13 01:59:16;;;;;;;4.70;3.60;;;;;;;20.46;66.04;100363.59;129792;1260;115359;-74
2023/08/13 02:02:18;;;;;;;4.30;3.50;;;;;;;20.44;66.32;100365.46;129892;1263;114751;-67
2023/08/13 02:05:20;;;;;;;3.90;3.50;;;;;;;20.40;66.40;100368.68;129768;1282;115256;-71
2023/08/13 02:08:22;;;;;;;8.80;3.80;;;;;;;20.37;66.40;100372.02;129665;1264;115007;-72
2023/08/13 02:11:24;;;;;;;4.30;3.60;;;;;;;20.33;66.77;100373.77;129731;1260;114798;-72
2023/08/13 02:14:28;;;;;;;4.50;3.50;;;;;;;20.31;66.77;100372.95;129708;1282;114807;-71
2023/08/13 02:17:31;;;;;;;4.20;3.70;;;;;;;20.29;67.02;100374.56;129446;1282;114851;-70
2023/08/13 02:20:33;;;;;;;4.40;3.60;;;;;;;20.27;67.17;100374.59;129737;1282;115348;-72
2023/08/13 02:23:35;;;;;;;6.60;4.00;;;;;;;20.24;67.33;100381.02;129872;1259;114878;-71
2023/08/13 02:26:36;;;;;;;5.90;3.60;;;;;;;20.22;67.48;100383.22;129466;1270;115181;-69
2023/08/13 02:29:38;;;;;;;5.70;4.10;;;;;;;20.17;67.68;100378.67;129745;1259;114743;-67
2023/08/13 02:32:41;;;;;;;5.10;4.10;;;;;;;20.13;67.75;100380.92;129741;1263;114741;-69
2023/08/13 02:35:43;;;;;;;4.80;4.00;;;;;;;20.07;67.87;100380.15;129592;1270;114807;-72
2023/08/13 02:38:45;;;;;;;8.70;4.40;;;;;;;20.01;68.05;100386.31;129763;1278;115168;-71
2023/08/13 02:41:46;;;;;;;5.00;4.30;;;;;;;19.93;68.19;100387.33;129730;1260;114791;-68
2023/08/13 02:44:48;;;;;;;8.50;5.80;;;;;;;19.85;68.18;100387.05;129527;1267;127911;-66
2023/08/13 02:47:50;;;;;;;9.70;6.70;;;;;;;19.79;68.42;100389.41;129780;1263;114745;-69
2023/08/13 02:50:52;;;;;;;6.80;6.10;;;;;;;19.74;68.67;100387.70;129810;1264;114872;-67
2023/08/13 02:53:57;;;;;;;6.10;5.30;;;;;;;19.69;68.73;100389.41;129723;1263;114799;-69
2023/08/13 02:56:59;;;;;;;6.70;5.10;;;;;;;19.63;68.95;100388.66;129523;1263;115189;-71
2023/08/13 03:00:02;;;;;;;6.00;4.50;;;;;;;19.56;68.98;100388.64;129710;1260;115151;-70
2023/08/13 03:03:04;;;;;;;6.60;4.80;;;;;;;19.50;69.22;100391.00;129802;1260;114741;-71
2023/08/13 03:06:07;;;;;;;6.10;4.60;;;;;;;19.44;69.21;100390.27;129733;1260;114764;-68
2023/08/13 03:09:10;;;;;;;10.00;4.80;;;;;;;19.38;69.35;100396.95;129449;1265;115196;-69
2023/08/13 03:12:12;;;;;;;8.60;4.60;;;;;;;19.32;69.50;100393.84;129604;1264;114731;-69
2023/08/13 03:15:14;;;;;;;6.60;4.80;;;;;;;19.27;69.84;100398.92;129783;1263;114752;-71
2023/08/13 03:18:16;;;;;;;6.70;4.50;;;;;;;19.24;70.04;100400.98;129788;1264;114744;-67
2023/08/13 03:21:18;;;;;;;7.40;4.90;;;;;;;19.23;70.30;100399.83;129745;1262;114816;-67
2023/08/13 03:24:19;;;;;;;6.60;4.70;;;;;;;19.22;70.59;100400.64;129674;1260;114840;-70
2023/08/13 03:27:21;;;;;;;5.40;4.90;;;;;;;19.22;70.71;100403.70;129781;1260;115112;-70
2023/08/13 03:30:24;;;;;;;6.50;4.90;;;;;;;19.22;70.93;100410.05;129677;1264;115335;-69
2023/08/13 03:33:26;;;;;;;6.70;4.80;;;;;;;19.22;70.93;100410.02;129792;1265;114748;-71
2023/08/13 03:36:28;;;;;;;6.00;4.70;;;;;;;19.23;71.18;100412.84;129675;1264;115157;-70
2023/08/13 03:39:30;;;;;;;7.50;4.60;;;;;;;19.25;71.44;100419.61;129481;1280;114969;-69
2023/08/13 03:42:32;;;;;;;5.50;4.80;;;;;;;19.27;71.64;100419.05;129642;1263;114862;-70
2023/08/13 03:45:34;;;;;;;5.80;4.80;;;;;;;19.30;71.94;100419.51;129812;1259;114742;-72
2023/08/13 03:48:36;;;;;;;6.20;4.60;;;;;;;19.34;72.06;100421.86;129637;1264;129179;-71
2023/08/13 03:51:38;;;;;;;6.70;4.40;;;;;;;19.39;72.22;100419.67;129685;1263;115398;-69
2023/08/13 03:54:40;;;;;;;7.20;4.40;;;;;;;19.44;72.34;100421.77;129748;1259;114821;-67
2023/08/13 03:57:42;;;;;;;5.90;4.30;;;;;;;19.51;72.45;100423.59;129693;1261;114792;-71
2023/08/13 04:00:44;;;;;;;6.90;4.00;;;;;;;19.57;72.61;100420.30;129690;1259;115667;-73
2023/08/13 04:03:46;;;;;;;4.60;4.00;;;;;;;19.64;72.70;100418.25;129718;1263;114823;-70
2023/08/13 04:06:48;;;;;;;5.30;3.60;;;;;;;19.72;72.87;100416.27;129434;1268;114892;-71
2023/08/13 04:09:50;;;;;;;6.50;4.10;;;;;;;19.81;72.94;100415.04;129639;1283;114734;-71
2023/08/13 04:12:53;;;;;;;5.20;3.70;;;;;;;19.90;73.18;100417.73;129829;1265;114737;-70
2023/08/13 04:15:55;;;;;;;4.00;3.60;;;;;;;20.00;73.20;100417.53;129810;1265;115183;-72
2023/08/13 04:18:57;;;;;;;5.90;3.70;;;;;;;20.10;73.34;100417.23;129700;1259;114747;-72
2023/08/13 04:21:59;;;;;;;5.60;3.60;;;;;;;20.21;73.34;100414.63;129782;1263;114763;-68
2023/08/13 04:25:01;;;;;;;7.50;4.00;;;;;;;20.34;73.35;100418.17;129511;1260;114815;-70
2023/08/13 04:28:04;;;;;;;3.40;3.10;;;;;;;20.48;73.45;100411.90;129659;1261;114805;-72
2023/08/13 04:31:06;;;;;;;5.40;3.90;;;;;;;20.61;73.50;100414.73;129638;1262;114728;-69
2023/08/13 04:34:08;;;;;;;4.60;3.60;;;;;;;20.75;73.69;100416.76;129787;1264;114822;-72
2023/08/13 04:37:10;;;;;;;7.60;3.70;;;;;;;20.88;73.77;100415.92;129689;1264;115256;-71
2023/08/13 04:40:12;;;;;;;6.60;3.60;;;;;;;21.03;73.71;100416.27;129680;1282;114744;-72
2023/08/13 04:43:15;;;;;;;4.00;3.00;;;;;;;21.16;73.71;100417.06;129730;1260;115180;-74
2023/08/13 04:46:17;;;;;;;6.30;3.60;;;;;;;21.29;73.66;100418.73;129517;1265;114887;-73
2023/08/13 04:49:19;;;;;;;5.40;3.50;;;;;;;21.39;73.50;100423.25;129723;1263;115399;-72
2023/08/13 04:52:21;;;;;;;7.20;3.60;;;;;;;21.49;73.18;100427.24;129740;1260;114753;-69
2023/08/13 04:55:23;;;;;;;4.80;3.60;;;;;;;21.57;73.25;100431.80;129733;1282;128144;-71
2023/08/13 04:58:25;;;;;;;5.50;3.40;;;;;;;21.69;73.07;100433.08;129722;1265;114778;-70
2023/08/13 05:01:27;;;;;;;4.60;3.20;;;;;;;21.81;72.61;100429.77;129754;1265;114732;-71
2023/08/13 05:04:29;;;;;;;6.80;3.60;;;;;;;21.94;72.70;100427.55;129824;1276;114743;-71
2023/08/13 05:07:31;;;;;;;5.10;3.10;;;;;;;22.14;72.80;100430.45;129780;1263;115208;-71
2023/08/13 05:10:33;;;;;;;7.40;3.00;;;;;;;22.37;72.45;100433.11;129842;1282;114730;-71
2023/08/13 05:13:35;;;;;;;5.00;3.20;;;;;;;22.58;72.21;100437.84;129837;1260;114684;-68
2023/08/13 05:16:37;;;;;;;4.60;3.10;;;;;;;22.93;71.89;100442.96;129526;1265;114803;-66
2023/08/13 05:19:39;;;;;;;5.80;3.20;;;;;;;23.30;71.68;100441.33;129794;1266;114748;-73
2023/08/13 05:22:41;;;;;;;3.40;2.70;;;;;;;23.67;70.84;100441.45;129459;1264;115225;-71
2023/08/13 05:25:43;;;;;;;4.40;3.40;;;;;;;23.98;70.38;100444.08;129762;1264;114726;-71
2023/08/13 05:28:45;;;;;;;6.00;2.90;;;;;;;24.15;69.52;100449.78;129793;1260;114821;-72
2023/08/13 05:31:47;;;;;;;4.00;3.20;;;;;;;24.23;69.03;100450.59;129718;1274;114746;-73
2023/08/13 05:34:49;;;;;;;3.20;2.90;;;;;;;24.32;68.61;100453.65;129756;1264;114810;-73
2023/08/13 05:37:51;;;;;;;4.90;3.00;;;;;;;24.39;68.10;100461.12;129831;1266;114726;-68
2023/08/13 05:40:53;;;;;;;6.40;2.70;;;;;;;24.48;67.97;100458.17;129728;1264;128939;-71
2023/08/13 05:43:56;;;;;;;8.30;3.60;;;;;;;24.60;67.29;100464.74;129725;1260;114818;-66
2023/08/13 05:46:58;;;;;;;3.60;2.70;;;;;;;24.63;66.78;100462.13;129767;1260;114726;-72
2023/08/13 05:50:00;;;;;;;4.90;2.90;;;;;;;24.69;66.47;100458.33;129814;1264;114831;-71
2023/08/13 05:53:02;;;;;;;4.80;2.70;;;;;;;24.72;66.02;100455.61;129528;1260;114737;-71
2023/08/13 05:56:04;;;;;;;5.20;2.60;;;;;;;24.79;65.98;100453.99;129787;1264;114737;-73
2023/08/13 05:59:06;;;;;;;3.80;3.10;;;;;;;24.88;65.83;100452.73;129787;1265;114785;-70
2023/08/13 06:02:08;;;;;;;5.30;3.10;;;;;;;24.93;65.58;100453.64;129671;1260;128922;-67
2023/08/13 06:05:11;;;;;;;5.10;3.00;;;;;;;24.94;65.33;100459.19;129683;1259;114774;-67
2023/08/13 06:08:13;;;;;;;3.50;2.90;;;;;;;24.88;65.05;100468.02;129782;1260;114826;-71
2023/08/13 06:11:19;;;;;;;4.60;3.10;;;;;;;24.80;64.98;100469.32;129479;1268;114805;-71
2023/08/13 06:14:20;;;;;;;3.60;3.00;;;;;;;24.88;65.10;100470.55;129773;1265;115163;-69
2023/08/13 06:17:22;;;;;;;10.30;3.30;;;;;;;25.18;65.31;100476.08;129773;1281;114741;-73
2023/08/13 06:20:24;;;;;;;3.30;2.60;;;;;;;25.51;64.75;100478.58;129486;1260;114832;-71
2023/08/13 06:23:26;;;;;;;7.60;3.00;;;;;;;25.85;64.27;100478.50;129555;1265;115303;-71
2023/08/13 06:26:28;;;;;;;6.70;3.30;;;;;;;26.20;63.89;100476.33;129819;1264;114802;-74
2023/08/13 06:29:30;;;;;;;3.10;2.80;;;;;;;26.49;63.07;100472.27;129743;1282;115257;-67
2023/08/13 06:32:32;;;;;;;3.70;3.30;;;;;;;26.83;62.77;100471.34;129739;1265;114827;-69
2023/08/13 06:35:34;;;;;;;3.10;2.80;;;;;;;27.15;62.29;100470.02;129744;1276;114748;-74
2023/08/13 06:38:37;;;;;;;3.50;3.20;;;;;;;27.48;61.83;100471.88;129614;1263;115006;-69
2023/08/13 06:41:39;;;;;;;6.40;2.90;;;;;;;27.77;61.15;100473.03;129754;1260;114824;-76
2023/08/13 06:44:41;;;;;;;2.90;2.70;;;;;;;28.04;60.82;100474.01;129779;1260;114749;-74
2023/08/13 06:47:43;;;;;;;4.20;2.80;;;;;;;28.33;60.27;100480.23;129955;1265;114737;-73
2023/08/13 06:50:48;;;;;;;5.80;3.40;;;;;;;28.63;59.70;100481.18;129450;1268;114835;-72
2023/08/13 06:53:50;;;;;;;5.30;3.30;;;;;;;28.85;59.03;100488.80;129656;1265;114846;-74
2023/08/13 06:56:55;;;;;;;3.30;3.00;;;;;;;29.00;58.56;100492.06;129730;1260;115192;-74
2023/08/13 06:59:57;;;;;;;3.20;2.90;;;;;;;29.09;58.05;100495.38;129569;1282;114933;-74
2023/08/13 07:02:59;;;;;;;3.60;3.10;;;;;;;29.24;57.50;100496.40;129852;1277;114722;-72
2023/08/13 07:06:03;;;;;;;4.80;2.80;;;;;;;29.41;57.32;100495.39;129907;1259;114728;-73
2023/08/13 07:09:06;;;;;;;3.30;2.90;;;;;;;29.60;56.94;100494.30;129932;1260;114773;-74
2023/08/13 07:12:09;;;;;;;3.00;2.50;;;;;;;29.78;56.58;100499.10;129846;1264;114728;-74
2023/08/13 07:15:10;;;;;;;5.40;2.90;;;;;;;29.98;56.09;100503.42;129814;1281;114728;-74
2023/08/13 07:18:12;;;;;;;3.90;3.00;;;;;;;30.26;55.75;100502.76;129850;1282;114853;-76
2023/08/13 07:21:15;;;;;;;4.30;3.10;;;;;;;30.52;55.04;100501.79;129806;1265;114718;-74
2023/08/13 07:24:17;;;;;;;4.10;3.50;;;;;;;30.77;54.50;100499.95;129838;1265;114802;-73
2023/08/13 07:27:19;;;;;;;3.80;3.20;;;;;;;31.08;54.08;100503.45;129933;1282;115129;-72
2023/08/13 07:30:21;;;;;;;4.20;3.10;;;;;;;31.44;53.72;100508.39;129564;1267;115192;-69
2023/08/13 07:33:23;;;;;;;4.50;3.00;;;;;;;31.83;52.99;100507.80;129730;1265;114826;-73
2023/08/13 07:36:25;;;;;;;3.30;2.70;;;;;;;32.11;52.16;100508.11;129874;1264;114724;-72
2023/08/13 07:39:27;;;;;;;3.50;2.70;;;;;;;32.33;51.55;100507.17;129599;1266;114816;-70
2023/08/13 07:42:29;;;;;;;5.10;3.00;;;;;;;32.61;50.91;100513.14;129916;1282;114745;-74
2023/08/13 07:45:32;;;;;;;3.40;2.70;;;;;;;33.02;50.66;100511.23;129922;1264;114777;-73
2023/08/13 07:48:34;;;;;;;5.70;3.50;;;;;;;33.33;49.63;100508.71;129729;1264;120275;-69
2023/08/13 07:51:36;;;;;;;4.20;2.60;;;;;;;33.34;49.43;100507.64;129726;1265;114752;-74
2023/08/13 07:54:38;;;;;;;2.80;2.50;;;;;;;33.45;49.43;100506.38;129760;1269;114762;-73
2023/08/13 07:57:40;;;;;;;3.00;2.70;;;;;;;33.58;48.43;100509.86;129844;1265;114835;-71
2023/08/13 08:00:42;;;;;;;4.20;3.10;;;;;;;33.39;48.35;100507.40;129711;1265;114716;-68
2023/08/13 08:03:44;;;;;;;3.70;2.30;;;;;;;33.26;48.02;100505.92;129779;1283;114773;-73
2023/08/13 08:06:46;;;;;;;2.60;2.40;;;;;;;33.15;47.88;100509.39;129497;1265;115029;-74
2023/08/13 08:09:48;;;;;;;2.20;2.00;;;;;;;33.25;47.53;100513.44;129685;1264;114761;-72
2023/08/13 08:12:50;;;;;;;2.60;2.30;;;;;;;33.47;46.96;100515.44;127566;1282;3003842;-70
2023/08/13 08:15:52;;;;;;;3.10;2.30;;;;;;;33.47;46.71;100515.70;129430;1259;115041;-73
2023/08/13 08:18:54;;;;;;;3.50;2.60;;;;;;;33.60;46.66;100513.27;129779;1276;115376;-68
2023/08/13 08:21:58;;;;;;;2.20;2.00;;;;;;;33.83;46.29;100514.65;129893;1283;114719;-73
2023/08/13 08:25:00;;;;;;;2.50;2.10;;;;;;;33.98;46.02;100514.08;129526;1264;115001;-73
2023/08/13 08:28:02;;;;;;;2.80;2.20;;;;;;;34.10;45.36;100514.36;129784;1265;114789;-73
2023/08/13 08:31:04;;;;;;;2.20;2.00;;;;;;;34.21;44.92;100515.42;129767;1260;114894;-72
2023/08/13 08:34:06;;;;;;;2.70;2.10;;;;;;;34.34;45.05;100511.29;129468;1268;119238;-74
2023/08/13 08:37:10;;;;;;;2.90;2.70;;;;;;;34.43;44.38;100513.69;129835;1265;114721;-74
2023/08/13 08:40:13;;;;;;;2.30;2.10;;;;;;;34.50;44.15;100512.52;129868;1265;114826;-74
2023/08/13 08:43:16;;;;;;;2.70;2.50;;;;;;;34.63;44.05;100508.30;129597;1283;114882;-72
2023/08/13 08:46:18;;;;;;;1.90;1.80;;;;;;;34.78;43.82;100508.64;129599;1260;114774;-71
2023/08/13 08:49:21;;;;;;;2.30;1.80;;;;;;;34.93;43.33;100507.45;129628;1266;114776;-73
2023/08/13 08:52:23;;;;;;;2.90;2.10;;;;;;;35.01;43.14;100499.61;129715;1273;121335;-73
2023/08/13 08:55:25;;;;;;;2.90;2.70;;;;;;;35.05;42.85;100501.27;129539;1265;114934;-74
2023/08/13 08:58:27;;;;;;;1.90;1.80;;;;;;;35.16;42.63;100495.68;129852;1282;114756;-75
2023/08/13 09:01:29;;;;;;;2.50;2.10;;;;;;;35.01;42.24;100500.29;129840;1276;114703;-73
2023/08/13 09:04:31;;;;;;;3.30;1.80;;;;;;;34.82;42.32;100500.42;129622;1267;115987;-73
2023/08/13 09:07:33;;;;;;;2.60;2.40;;;;;;;34.58;42.02;100498.47;129932;1273;114733;-73
2023/08/13 09:10:35;;;;;;;1.80;1.70;;;;;;;34.26;42.40;100493.52;129782;1283;114673;-71
2023/08/13 09:13:47;;;;;;;2.50;2.20;;;;;;;34.10;42.55;100489.89;129681;1284;114770;-75
2023/08/13 09:16:51;;;;;;;1.90;1.80;;;;;;;34.00;42.17;100492.77;129701;1265;114859;-74
2023/08/13 09:19:53;;;;;;;2.40;2.20;;;;;;;33.70;42.32;100488.92;129598;1268;114858;-77
2023/08/13 09:22:58;;;;;;;6.40;1.60;;;;;;;33.41;42.57;100488.13;129704;1276;115157;-70
2023/08/13 09:26:00;;;;;;;1.70;1.60;;;;;;;33.18;42.76;100488.61;129884;1275;114703;-71
2023/08/13 09:29:07;;;;;;;2.00;1.90;;;;;;;33.06;42.70;100488.12;129575;1281;115215;-70
2023/08/13 09:32:09;;;;;;;2.70;2.40;;;;;;;33.10;43.02;100490.83;129785;1279;114721;-71
2023/08/13 09:35:11;;;;;;;2.50;2.30;;;;;;;33.21;42.96;100492.83;129581;1276;114787;-70
2023/08/13 09:38:12;;;;;;;2.00;1.80;;;;;;;33.33;43.11;100493.84;129778;1266;114863;-72
2023/08/13 09:41:15;;;;;;;2.20;1.80;;;;;;;33.41;42.60;100493.91;129619;1268;114834;-71
2023/08/13 09:44:24;;;;;;;2.00;1.80;;;;;;;33.27;42.64;100492.80;129700;1265;115206;-70
2023/08/13 09:47:27;;;;;;;1.80;1.70;;;;;;;33.07;42.45;100492.05;129804;1273;120456;-71
2023/08/13 09:50:34;;;;;;;2.10;2.00;;;;;;;32.88;42.83;100488.80;129871;1283;114699;-70
2023/08/13 09:53:37;;;;;;;2.70;2.30;;;;;;;32.68;42.91;100488.28;129779;1266;114817;-70
2023/08/13 09:56:41;;;;;;;3.00;2.20;;;;;;;32.50;43.32;100485.60;129892;1260;115427;-70
2023/08/13 09:59:44;;;;;;;2.00;1.90;;;;;;;32.39;43.58;100487.89;129640;1268;114746;-70
2023/08/13 10:02:47;;;;;;;1.90;1.80;;;;;;;32.30;43.72;100484.67;129828;1263;114722;-71
2023/08/13 10:05:49;;;;;;;2.50;2.00;;;;;;;32.27;44.05;100484.66;129717;1273;115462;-70
2023/08/13 10:08:51;;;;;;;2.10;2.00;;;;;;;32.20;43.94;100478.98;129759;1283;115176;-70
2023/08/13 10:11:54;;;;;;;2.40;2.10;;;;;;;32.11;44.14;100480.44;129575;1266;114797;-71
2023/08/13 10:14:56;;;;;;;4.20;2.00;;;;;;;31.97;44.21;100482.88;129703;1283;114849;-71
2023/08/13 10:17:58;;;;;;;3.90;2.00;;;;;;;31.78;44.33;100479.80;129745;1266;114767;-71
2023/08/13 10:21:00;;;;;;;3.70;2.10;;;;;;;31.77;44.94;100478.62;129828;1274;114843;-70
2023/08/13 10:24:03;;;;;;;2.00;1.90;;;;;;;31.86;45.18;100478.15;129740;1265;119204;-70
2023/08/13 10:27:05;;;;;;;2.40;1.90;;;;;;;31.85;44.78;100480.72;129412;1263;114831;-71
2023/08/13 10:30:11;;;;;;;2.20;2.10;;;;;;;31.70;44.64;100481.23;129528;1284;114794;-72
2023/08/13 10:33:14;;;;;;;4.40;2.40;;;;;;;31.52;44.67;100482.64;129524;1266;114770;-69
2023/08/13 10:36:18;;;;;;;3.20;2.10;;;;;;;31.28;44.83;100481.95;129827;1282;114772;-75
2023/08/13 10:39:37;;;;;;;2.00;1.80;;;;;;;31.18;45.25;100480.19;129816;1276;114733;-76
2023/08/13 10:42:50;;;;;;;2.30;2.10;;;;;;;31.12;45.21;100483.10;129806;1274;114987;-76
2023/08/13 10:45:52;;;;;;;3.40;1.90;;;;;;;31.02;45.34;100487.75;129873;1265;114769;-75
2023/08/13 10:48:55;;;;;;;5.80;2.10;;;;;;;30.96;45.76;100489.74;129801;1263;115371;-72
2023/08/13 10:52:03;;;;;;;3.30;2.70;;;;;;;30.90;45.99;100489.55;129767;1259;114733;-76
2023/08/13 10:55:06;;;;;;;2.00;1.90;;;;;;;30.97;46.03;100491.66;129716;1274;120237;-76
2023/08/13 10:58:39;;;;;;;2.80;2.10;;;;;;;31.04;45.84;100491.61;129763;1280;114759;-74
2023/08/13 11:02:13;;;;;;;2.90;2.40;;;;;;;31.15;45.79;100485.95;129864;1272;115654;-77
2023/08/13 11:05:15;;;;;;;2.50;2.30;;;;;;;31.21;46.00;100484.54;129567;1268;114757;-77
2023/08/13 11:08:22;;;;;;;22.20;15.30;;;;;;;31.29;46.25;100481.37;129772;1276;115164;-75
2023/08/13 11:11:24;;;;;;;5.90;4.70;;;;;;;31.39;46.39;100484.20;129867;1267;119269;-75
2023/08/13 11:14:28;;;;;;;3.60;2.40;;;;;;;31.43;46.09;100484.92;129749;1266;114805;-75
2023/08/13 11:17:30;;;;;;;4.10;2.30;;;;;;;31.44;45.94;100480.84;129673;1268;114747;-76
2023/08/13 11:20:33;;;;;;;2.20;2.00;;;;;;;31.47;45.76;100482.68;129786;1263;115250;-75
2023/08/13 11:23:35;;;;;;;2.50;2.30;;;;;;;31.43;45.83;100475.69;129689;1275;115167;-75
2023/08/13 11:26:39;;;;;;;3.60;2.50;;;;;;;31.37;45.65;100476.83;129797;1283;114723;-75
2023/08/13 11:29:42;;;;;;;3.20;2.30;;;;;;;31.33;45.58;100476.42;129564;1266;120105;-75
2023/08/13 11:32:44;;;;;;;2.30;2.10;;;;;;;31.24;45.98;100475.48;129820;1273;114737;-74
2023/08/13 11:35:46;;;;;;;2.40;2.20;;;;;;;31.18;46.06;100470.64;129883;1283;114741;-74
2023/08/13 11:38:48;;;;;;;2.90;2.30;;;;;;;31.05;45.86;100467.11;129815;1273;114734;-77
2023/08/13 11:41:51;;;;;;;2.50;2.30;;;;;;;30.88;46.07;100465.27;129477;1269;115006;-75
2023/08/13 11:44:53;;;;;;;2.80;2.00;;;;;;;30.81;46.64;100465.50;129768;1277;114737;-76
2023/08/13 11:48:11;;;;;;;2.40;2.20;;;;;;;30.75;46.77;100465.18;129916;1283;115096;-76
2023/08/13 11:51:14;;;;;;;3.00;2.70;;;;;;;30.64;46.61;100472.36;129512;1266;119240;-72
2023/08/13 11:54:20;;;;;;;4.40;2.20;;;;;;;30.52;46.51;100471.70;129808;1266;114754;-76
2023/08/13 11:57:22;;;;;;;2.90;2.30;;;;;;;30.42;46.53;100471.39;130046;1264;114750;-77
2023/08/13 12:00:26;;;;;;;2.30;2.10;;;;;;;30.30;46.64;100470.89;130102;1270;115150;-72
2023/08/13 12:03:40;;;;;;;3.20;2.50;;;;;;;30.22;46.85;100472.20;130031;1263;114747;-77
2023/08/13 12:06:42;;;;;;;2.40;2.20;;;;;;;30.15;46.99;100469.34;130033;1261;120140;-76
2023/08/13 12:09:43;;;;;;;2.00;1.90;;;;;;;30.04;47.09;100467.08;129938;1270;114806;-77
2023/08/13 12:12:46;;;;;;;2.60;2.40;;;;;;;29.89;47.17;100465.20;130101;1280;115121;-77
2023/08/13 12:15:48;;;;;;;3.30;2.30;;;;;;;29.80;47.24;100463.95;129690;1274;114810;-77
2023/08/13 12:18:49;;;;;;;2.60;2.40;;;;;;;29.75;47.63;100466.66;130048;1270;114732;-77
2023/08/13 12:21:51;;;;;;;4.50;2.30;;;;;;;29.67;47.89;100465.09;130138;1270;114769;-76
2023/08/13 12:24:53;;;;;;;2.80;2.60;;;;;;;29.54;48.17;100464.98;129969;1262;115138;-76
2023/08/13 12:27:55;;;;;;;3.30;2.20;;;;;;;29.46;48.23;100459.97;130184;1260;115109;-69
2023/08/13 12:30:57;;;;;;;2.50;2.30;;;;;;;29.41;48.39;100454.02;130314;1273;114735;-67
2023/08/13 12:33:59;;;;;;;2.30;2.00;;;;;;;29.39;48.68;100453.49;129923;1265;114901;-67
2023/08/13 12:37:01;;;;;;;4.60;2.60;;;;;;;29.33;48.93;100454.98;129891;1260;115111;-67
2023/08/13 12:40:03;;;;;;;2.10;1.90;;;;;;;29.24;48.86;100453.69;130012;1279;114690;-67
2023/08/13 12:43:05;;;;;;;2.80;2.50;;;;;;;29.17;48.96;100454.41;129955;1280;114729;-67
2023/08/13 12:46:08;;;;;;;2.80;2.60;;;;;;;29.13;49.28;100458.23;129977;1270;115170;-66
2023/08/13 12:49:11;;;;;;;2.40;2.10;;;;;;;29.07;49.04;100454.21;129983;1263;115026;-66
2023/08/13 12:52:13;;;;;;;4.00;2.70;;;;;;;29.04;49.49;100449.06;129992;1273;114755;-67
2023/08/13 12:55:16;;;;;;;3.50;2.50;;;;;;;29.05;49.58;100442.48;130131;1260;115276;-66
2023/08/13 12:58:18;;;;;;;2.60;2.40;;;;;;;29.04;49.41;100440.02;129935;1258;114737;-67
2023/08/13 13:01:20;;;;;;;2.20;2.00;;;;;;;28.99;49.23;100438.81;129521;1276;115178;-66
2023/08/13 13:04:22;;;;;;;2.10;1.90;;;;;;;29.00;49.43;100436.39;129619;1280;115125;-65
2023/08/13 13:07:24;;;;;;;2.90;2.10;;;;;;;28.99;48.95;100432.27;129486;1277;115129;-65
2023/08/13 13:10:26;;;;;;;2.60;2.30;;;;;;;28.96;49.29;100427.57;129477;1278;115336;-67
2023/08/13 13:13:28;;;;;;;2.70;2.40;;;;;;;28.99;49.65;100422.12;129831;1279;114747;-66
2023/08/13 13:16:30;;;;;;;2.70;2.40;;;;;;;29.01;49.73;100420.08;129370;1273;114868;-66
2023/08/13 13:19:32;;;;;;;2.50;2.30;;;;;;;29.02;49.96;100423.16;129680;1276;114733;-70
2023/08/13 13:22:34;;;;;;;3.40;2.40;;;;;;;29.04;49.94;100429.35;129592;1280;115166;-68
2023/08/13 13:25:38;;;;;;;4.90;2.20;;;;;;;29.03;49.81;100427.86;129564;1279;114722;-67
2023/08/13 13:28:40;;;;;;;4.20;2.30;;;;;;;29.03;49.56;100423.49;129807;1264;115759;-68
2023/08/13 13:31:42;;;;;;;4.00;2.40;;;;;;;29.05;49.29;100420.98;130220;1270;114826;-66
2023/08/13 13:34:44;;;;;;;2.60;2.20;;;;;;;29.13;49.31;100422.96;130090;1273;114779;-67
2023/08/13 13:37:46;;;;;;;3.40;1.80;;;;;;;29.23;49.24;100425.49;129463;1280;115076;-67
2023/08/13 13:40:48;;;;;;;2.80;2.50;;;;;;;29.34;48.99;100418.45;129691;1279;114705;-70
2023/08/13 13:43:50;;;;;;;2.00;1.90;;;;;;;29.45;48.66;100413.55;130376;1261;114961;-68
2023/08/13 13:46:52;;;;;;;2.30;2.10;;;;;;;29.56;48.26;100407.92;129472;1280;114799;-68
2023/08/13 13:49:54;;;;;;;2.30;1.90;;;;;;;29.59;48.24;100406.08;129986;1276;115250;-68
2023/08/13 13:52:56;;;;;;;3.10;2.10;;;;;;;29.63;48.24;100406.99;129824;1279;115363;-69